sensor_id;sensor_type;location;lat;lon;timestamp;pressure;altitude;pressure_sealevel;temperature;humidity
79612;BME280;69094;48.154;11.536;2023-07-13T00:02:18;95510.53;;;17.61;88.42
79612;BME280;69094;48.154;11.536;2023-07-13T00:04:43;95496.69;;;17.54;88.78
79612;BME280;69094;48.154;11.536;2023-07-13T00:07:08;95492.75;;;17.55;89.23
79612;BME280;69094;48.154;11.536;2023-07-13T00:09:34;95480.16;;;17.54;89.09
79612;BME280;69094;48.154;11.536;2023-07-13T00:12:00;95490.06;;;17.59;89.20
79612;BME280;69094;48.154;11.536;2023-07-13T00:14:27;95480.63;;;17.60;89.09
79612;BME280;69094;48.154;11.536;2023-07-13T00:16:53;95486.06;;;17.56;89.26
79612;BME280;69094;48.154;11.536;2023-07-13T00:19:19;95475.56;;;17.62;88.83
79612;BME280;69094;48.154;11.536;2023-07-13T00:21:45;95482.28;;;17.64;88.98
79612;BME280;69094;48.154;11.536;2023-07-13T00:24:13;95494.81;;;17.62;88.97
79612;BME280;69094;48.154;11.536;2023-07-13T00:26:39;95488.97;;;17.67;89.00
79612;BME280;69094;48.154;11.536;2023-07-13T00:29:04;95487.38;;;17.66;88.56
79612;BME280;69094;48.154;11.536;2023-07-13T00:31:34;95482.75;;;17.74;88.06
79612;BME280;69094;48.154;11.536;2023-07-13T00:34:00;95488.22;;;17.70;88.66
79612;BME280;69094;48.154;11.536;2023-07-13T00:36:25;95496.06;;;17.68;88.05
79612;BME280;69094;48.154;11.536;2023-07-13T00:38:51;95492.56;;;17.71;87.52
79612;BME280;69094;48.154;11.536;2023-07-13T00:41:16;95489.88;;;17.75;86.37
79612;BME280;69094;48.154;11.536;2023-07-13T00:43:42;95489.03;;;17.71;86.09
79612;BME280;69094;48.154;11.536;2023-07-13T00:48:42;95489.03;;;17.71;86.13
79612;BME280;69094;48.154;11.536;2023-07-13T00:51:10;95503.88;;;17.66;86.46
79612;BME280;69094;48.154;11.536;2023-07-13T00:53:35;95503.97;;;17.70;86.17
79612;BME280;69094;48.154;11.536;2023-07-13T00:56:01;95490.41;;;17.57;86.49
79612;BME280;69094;48.154;11.536;2023-07-13T00:58:28;95492.84;;;17.62;86.87
79612;BME280;69094;48.154;11.536;2023-07-13T01:00:54;95506.28;;;17.68;86.60
79612;BME280;69094;48.154;11.536;2023-07-13T01:03:20;95489.34;;;17.65;86.93
79612;BME280;69094;48.154;11.536;2023-07-13T01:05:47;95475.22;;;17.67;86.83
79612;BME280;69094;48.154;11.536;2023-07-13T01:08:13;95483.50;;;17.71;86.47
79612;BME280;69094;48.154;11.536;2023-07-13T01:10:38;95469.34;;;17.69;87.12
79612;BME280;69094;48.154;11.536;2023-07-13T01:13:05;95465.44;;;17.70;86.35
79612;BME280;69094;48.154;11.536;2023-07-13T01:15:44;95463.38;;;17.63;87.10
79612;BME280;69094;48.154;11.536;2023-07-13T01:18:30;95468.09;;;17.62;87.22
79612;BME280;69094;48.154;11.536;2023-07-13T01:21:03;95452.75;;;17.61;86.88
79612;BME280;69094;48.154;11.536;2023-07-13T01:23:30;95461.00;;;17.61;86.70
79612;BME280;69094;48.154;11.536;2023-07-13T01:25:57;95446.81;;;17.59;87.01
79612;BME280;69094;48.154;11.536;2023-07-13T01:28:25;95448.13;;;17.69;86.87
79612;BME280;69094;48.154;11.536;2023-07-13T01:30:55;95441.81;;;17.69;87.35
79612;BME280;69094;48.154;11.536;2023-07-13T01:33:21;95443.41;;;17.70;86.67
79612;BME280;69094;48.154;11.536;2023-07-13T01:35:47;95441.00;;;17.64;86.88
79612;BME280;69094;48.154;11.536;2023-07-13T01:38:17;95439.38;;;17.63;86.82
79612;BME280;69094;48.154;11.536;2023-07-13T01:40:43;95446.06;;;17.62;87.46
79612;BME280;69094;48.154;11.536;2023-07-13T01:43:09;95449.59;;;17.63;86.91
79612;BME280;69094;48.154;11.536;2023-07-13T01:45:34;95458.31;;;17.69;87.43
79612;BME280;69094;48.154;11.536;2023-07-13T01:48:00;95455.25;;;17.74;87.64
79612;BME280;69094;48.154;11.536;2023-07-13T01:50:26;95471.34;;;17.72;88.08
79612;BME280;69094;48.154;11.536;2023-07-13T01:52:52;95470.59;;;17.75;88.27
79612;BME280;69094;48.154;11.536;2023-07-13T01:55:19;95456.31;;;17.65;88.70
79612;BME280;69094;48.154;11.536;2023-07-13T01:57:44;95476.47;;;17.73;89.30
79612;BME280;69094;48.154;11.536;2023-07-13T02:00:10;95480.44;;;17.76;89.32
79612;BME280;69094;48.154;11.536;2023-07-13T02:02:36;95471.25;;;17.64;88.88
79612;BME280;69094;48.154;11.536;2023-07-13T02:05:02;95478.00;;;17.71;88.13
79612;BME280;69094;48.154;11.536;2023-07-13T02:07:27;95474.81;;;17.65;88.26
79612;BME280;69094;48.154;11.536;2023-07-13T02:09:53;95486.28;;;17.71;87.57
79612;BME280;69094;48.154;11.536;2023-07-13T02:12:19;95476.38;;;17.66;88.36
79612;BME280;69094;48.154;11.536;2023-07-13T02:14:44;95479.56;;;17.68;88.18
79612;BME280;69094;48.154;11.536;2023-07-13T02:17:10;95489.13;;;17.78;88.35
79612;BME280;69094;48.154;11.536;2023-07-13T02:19:36;95468.53;;;17.68;88.13
79612;BME280;69094;48.154;11.536;2023-07-13T02:22:01;95472.56;;;17.74;88.74
79612;BME280;69094;48.154;11.536;2023-07-13T02:24:27;95492.00;;;17.85;88.52
79612;BME280;69094;48.154;11.536;2023-07-13T02:26:52;95484.53;;;17.85;87.97
79612;BME280;69094;48.154;11.536;2023-07-13T02:29:18;95492.41;;;17.87;87.80
79612;BME280;69094;48.154;11.536;2023-07-13T02:31:43;95489.88;;;17.75;88.04
79612;BME280;69094;48.154;11.536;2023-07-13T02:34:09;95498.91;;;17.75;88.53
79612;BME280;69094;48.154;11.536;2023-07-13T02:36:34;95509.88;;;17.72;88.42
79612;BME280;69094;48.154;11.536;2023-07-13T02:39:05;95511.78;;;17.68;89.12
79612;BME280;69094;48.154;11.536;2023-07-13T02:41:31;95522.00;;;17.67;89.12
79612;BME280;69094;48.154;11.536;2023-07-13T02:44:00;95521.91;;;17.60;88.69
79612;BME280;69094;48.154;11.536;2023-07-13T02:46:36;95530.63;;;17.65;88.05
79612;BME280;69094;48.154;11.536;2023-07-13T02:49:02;95543.34;;;17.47;88.58
79612;BME280;69094;48.154;11.536;2023-07-13T02:51:28;95547.53;;;17.41;88.33
79612;BME280;69094;48.154;11.536;2023-07-13T02:53:53;95537.13;;;17.27;89.71
79612;BME280;69094;48.154;11.536;2023-07-13T02:56:23;95542.41;;;17.13;88.86
79612;BME280;69094;48.154;11.536;2023-07-13T02:58:49;95545.75;;;17.03;88.57
79612;BME280;69094;48.154;11.536;2023-07-13T03:01:15;95540.50;;;16.94;89.21
79612;BME280;69094;48.154;11.536;2023-07-13T03:03:43;95541.22;;;16.91;89.03
79612;BME280;69094;48.154;11.536;2023-07-13T03:06:08;95530.53;;;16.86;89.45
79612;BME280;69094;48.154;11.536;2023-07-13T03:08:34;95535.25;;;16.85;90.35
79612;BME280;69094;48.154;11.536;2023-07-13T03:11:01;95521.09;;;16.83;89.88
79612;BME280;69094;48.154;11.536;2023-07-13T03:13:27;95526.88;;;16.78;90.28
79612;BME280;69094;48.154;11.536;2023-07-13T03:15:52;95528.59;;;16.67;90.51
79612;BME280;69094;48.154;11.536;2023-07-13T03:18:17;95533.75;;;16.68;90.00
79612;BME280;69094;48.154;11.536;2023-07-13T03:20:43;95544.78;;;16.72;89.92
79612;BME280;69094;48.154;11.536;2023-07-13T03:23:09;95549.06;;;16.69;89.43
79612;BME280;69094;48.154;11.536;2023-07-13T03:25:34;95550.88;;;16.62;90.16
79612;BME280;69094;48.154;11.536;2023-07-13T03:27:59;95550.09;;;16.61;89.14
79612;BME280;69094;48.154;11.536;2023-07-13T03:30:25;95546.19;;;16.62;89.14
79612;BME280;69094;48.154;11.536;2023-07-13T03:32:50;95545.78;;;16.60;88.70
79612;BME280;69094;48.154;11.536;2023-07-13T03:35:16;95544.59;;;16.61;89.25
79612;BME280;69094;48.154;11.536;2023-07-13T03:37:41;95560.44;;;16.68;88.65
79612;BME280;69094;48.154;11.536;2023-07-13T03:40:08;95560.44;;;16.68;88.42
79612;BME280;69094;48.154;11.536;2023-07-13T03:42:34;95563.84;;;16.61;88.79
79612;BME280;69094;48.154;11.536;2023-07-13T03:45:00;95565.44;;;16.62;88.87
79612;BME280;69094;48.154;11.536;2023-07-13T03:47:25;95556.47;;;16.65;88.30
79612;BME280;69094;48.154;11.536;2023-07-13T03:49:51;95554.84;;;16.64;87.44
79612;BME280;69094;48.154;11.536;2023-07-13T03:52:18;95550.81;;;16.58;87.17
79612;BME280;69094;48.154;11.536;2023-07-13T03:54:43;95554.81;;;16.61;87.17
79612;BME280;69094;48.154;11.536;2023-07-13T03:57:09;95549.34;;;16.64;86.17
79612;BME280;69094;48.154;11.536;2023-07-13T03:59:34;95555.88;;;16.56;86.47
79612;BME280;69094;48.154;11.536;2023-07-13T04:02:00;95558.63;;;16.56;85.81
79612;BME280;69094;48.154;11.536;2023-07-13T04:04:26;95559.81;;;16.55;86.77
79612;BME280;69094;48.154;11.536;2023-07-13T04:06:51;95566.44;;;16.54;86.97
79612;BME280;69094;48.154;11.536;2023-07-13T04:09:18;95567.13;;;16.47;86.77
79612;BME280;69094;48.154;11.536;2023-07-13T04:11:43;95577.22;;;16.43;87.11
79612;BME280;69094;48.154;11.536;2023-07-13T04:14:09;95580.63;;;16.36;87.71
79612;BME280;69094;48.154;11.536;2023-07-13T04:16:34;95570.81;;;16.35;88.01
79612;BME280;69094;48.154;11.536;2023-07-13T04:19:00;95573.69;;;16.23;89.75
79612;BME280;69094;48.154;11.536;2023-07-13T04:21:27;95575.94;;;16.18;90.10
79612;BME280;69094;48.154;11.536;2023-07-13T04:23:53;95579.25;;;16.27;88.85
79612;BME280;69094;48.154;11.536;2023-07-13T04:26:18;95575.78;;;16.30;88.23
79612;BME280;69094;48.154;11.536;2023-07-13T04:28:46;95581.34;;;16.33;88.71
79612;BME280;69094;48.154;11.536;2023-07-13T04:31:13;95581.63;;;16.48;89.76
79612;BME280;69094;48.154;11.536;2023-07-13T04:33:38;95576.72;;;16.38;87.83
79612;BME280;69094;48.154;11.536;2023-07-13T04:36:04;95582.91;;;16.54;86.81
79612;BME280;69094;48.154;11.536;2023-07-13T04:38:31;95591.44;;;16.49;87.56
79612;BME280;69094;48.154;11.536;2023-07-13T04:40:59;95584.25;;;16.41;86.57
79612;BME280;69094;48.154;11.536;2023-07-13T04:43:26;95592.75;;;16.55;87.35
79612;BME280;69094;48.154;11.536;2023-07-13T04:45:53;95591.53;;;16.52;87.83
79612;BME280;69094;48.154;11.536;2023-07-13T04:48:19;95597.22;;;16.63;86.38
79612;BME280;69094;48.154;11.536;2023-07-13T04:50:45;95601.66;;;16.68;86.69
79612;BME280;69094;48.154;11.536;2023-07-13T04:53:11;95605.31;;;16.75;86.02
79612;BME280;69094;48.154;11.536;2023-07-13T04:55:37;95594.53;;;16.67;85.98
79612;BME280;69094;48.154;11.536;2023-07-13T04:58:03;95597.00;;;16.72;85.09
79612;BME280;69094;48.154;11.536;2023-07-13T05:00:29;95596.72;;;16.77;85.43
79612;BME280;69094;48.154;11.536;2023-07-13T05:02:56;95603.59;;;16.67;84.97
79612;BME280;69094;48.154;11.536;2023-07-13T05:05:22;95611.56;;;16.72;85.35
79612;BME280;69094;48.154;11.536;2023-07-13T05:07:48;95615.00;;;16.69;85.29
79612;BME280;69094;48.154;11.536;2023-07-13T05:10:13;95609.25;;;16.74;85.88
79612;BME280;69094;48.154;11.536;2023-07-13T05:12:38;95617.47;;;16.74;85.77
79612;BME280;69094;48.154;11.536;2023-07-13T05:15:04;95620.50;;;16.69;85.91
79612;BME280;69094;48.154;11.536;2023-07-13T05:17:30;95615.88;;;16.73;86.49
79612;BME280;69094;48.154;11.536;2023-07-13T05:19:55;95612.38;;;16.76;86.31
79612;BME280;69094;48.154;11.536;2023-07-13T05:22:20;95619.50;;;16.77;88.17
79612;BME280;69094;48.154;11.536;2023-07-13T05:24:46;95601.25;;;16.69;88.91
79612;BME280;69094;48.154;11.536;2023-07-13T05:27:11;95609.31;;;16.78;87.13
79612;BME280;69094;48.154;11.536;2023-07-13T05:29:36;95613.56;;;16.75;86.59
79612;BME280;69094;48.154;11.536;2023-07-13T05:32:02;95618.00;;;16.80;85.89
79612;BME280;69094;48.154;11.536;2023-07-13T05:34:28;95621.25;;;16.86;85.41
79612;BME280;69094;48.154;11.536;2023-07-13T05:36:54;95622.81;;;16.87;84.77
79612;BME280;69094;48.154;11.536;2023-07-13T05:39:19;95629.06;;;16.84;84.70
79612;BME280;69094;48.154;11.536;2023-07-13T05:41:45;95621.53;;;16.81;84.54
79612;BME280;69094;48.154;11.536;2023-07-13T05:44:10;95622.25;;;16.97;84.53
79612;BME280;69094;48.154;11.536;2023-07-13T05:46:36;95629.50;;;17.09;84.05
79612;BME280;69094;48.154;11.536;2023-07-13T05:49:01;95627.81;;;17.23;83.73
79612;BME280;69094;48.154;11.536;2023-07-13T05:51:27;95622.91;;;17.36;82.87
79612;BME280;69094;48.154;11.536;2023-07-13T05:53:52;95625.66;;;17.59;82.42
79612;BME280;69094;48.154;11.536;2023-07-13T05:56:17;95629.66;;;17.62;82.57
79612;BME280;69094;48.154;11.536;2023-07-13T05:58:43;95632.50;;;17.69;82.85
79612;BME280;69094;48.154;11.536;2023-07-13T06:01:11;95629.94;;;17.80;81.70
79612;BME280;69094;48.154;11.536;2023-07-13T06:03:37;95633.78;;;17.75;81.06
79612;BME280;69094;48.154;11.536;2023-07-13T06:06:04;95630.13;;;17.68;82.40
79612;BME280;69094;48.154;11.536;2023-07-13T06:08:30;95629.44;;;17.74;80.73
79612;BME280;69094;48.154;11.536;2023-07-13T06:11:02;95630.00;;;17.83;81.53
79612;BME280;69094;48.154;11.536;2023-07-13T06:13:27;95638.13;;;17.76;81.79
79612;BME280;69094;48.154;11.536;2023-07-13T06:15:53;95639.34;;;17.79;81.88
79612;BME280;69094;48.154;11.536;2023-07-13T06:18:18;95649.53;;;18.01;81.14
79612;BME280;69094;48.154;11.536;2023-07-13T06:20:43;95647.72;;;18.39;78.90
79612;BME280;69094;48.154;11.536;2023-07-13T06:23:09;95652.41;;;18.69;77.63
79612;BME280;69094;48.154;11.536;2023-07-13T06:25:34;95649.78;;;18.76;77.37
79612;BME280;69094;48.154;11.536;2023-07-13T06:28:00;95657.50;;;18.97;76.29
79612;BME280;69094;48.154;11.536;2023-07-13T06:30:26;95651.88;;;19.24;76.67
79612;BME280;69094;48.154;11.536;2023-07-13T06:32:52;95657.53;;;19.38;74.66
79612;BME280;69094;48.154;11.536;2023-07-13T06:35:17;95664.13;;;19.26;72.83
79612;BME280;69094;48.154;11.536;2023-07-13T06:37:43;95666.38;;;19.17;72.24
79612;BME280;69094;48.154;11.536;2023-07-13T06:40:08;95669.84;;;19.10;72.75
79612;BME280;69094;48.154;11.536;2023-07-13T06:42:34;95681.59;;;19.04;72.64
79612;BME280;69094;48.154;11.536;2023-07-13T06:44:59;95681.94;;;18.99;72.85
79612;BME280;69094;48.154;11.536;2023-07-13T06:47:25;95677.56;;;18.94;71.80
79612;BME280;69094;48.154;11.536;2023-07-13T06:49:50;95689.81;;;19.00;71.72
79612;BME280;69094;48.154;11.536;2023-07-13T06:52:15;95689.88;;;19.04;71.21
79612;BME280;69094;48.154;11.536;2023-07-13T06:54:41;95685.94;;;19.05;72.40
79612;BME280;69094;48.154;11.536;2023-07-13T06:57:06;95686.38;;;19.07;69.67
79612;BME280;69094;48.154;11.536;2023-07-13T06:59:32;95682.56;;;19.19;70.10
79612;BME280;69094;48.154;11.536;2023-07-13T07:01:58;95688.44;;;19.17;69.97
79612;BME280;69094;48.154;11.536;2023-07-13T07:04:23;95688.97;;;19.30;70.03
79612;BME280;69094;48.154;11.536;2023-07-13T07:06:48;95698.06;;;19.30;70.08
79612;BME280;69094;48.154;11.536;2023-07-13T07:09:14;95701.28;;;19.40;69.22
79612;BME280;69094;48.154;11.536;2023-07-13T07:11:41;95704.56;;;19.52;68.14
79612;BME280;69094;48.154;11.536;2023-07-13T07:14:07;95705.66;;;19.41;66.89
79612;BME280;69094;48.154;11.536;2023-07-13T07:16:32;95705.94;;;19.32;67.52
79612;BME280;69094;48.154;11.536;2023-07-13T07:18:58;95699.38;;;19.44;68.02
79612;BME280;69094;48.154;11.536;2023-07-13T07:21:23;95694.72;;;19.14;69.54
79612;BME280;69094;48.154;11.536;2023-07-13T07:23:48;95690.69;;;19.08;70.18
79612;BME280;69094;48.154;11.536;2023-07-13T07:26:14;95689.97;;;19.11;69.37
79612;BME280;69094;48.154;11.536;2023-07-13T07:28:40;95696.22;;;19.08;70.50
79612;BME280;69094;48.154;11.536;2023-07-13T07:31:05;95703.75;;;19.11;68.47
79612;BME280;69094;48.154;11.536;2023-07-13T07:33:32;95712.13;;;19.18;69.41
79612;BME280;69094;48.154;11.536;2023-07-13T07:35:58;95699.38;;;19.06;68.83
79612;BME280;69094;48.154;11.536;2023-07-13T07:38:23;95702.41;;;18.98;69.22
79612;BME280;69094;48.154;11.536;2023-07-13T07:40:48;95714.41;;;19.12;70.29
79612;BME280;69094;48.154;11.536;2023-07-13T07:43:14;95715.84;;;19.03;70.22
79612;BME280;69094;48.154;11.536;2023-07-13T07:45:40;95725.09;;;19.18;69.58
79612;BME280;69094;48.154;11.536;2023-07-13T07:48:06;95726.88;;;19.03;68.34
79612;BME280;69094;48.154;11.536;2023-07-13T07:50:32;95733.81;;;18.89;70.54
79612;BME280;69094;48.154;11.536;2023-07-13T07:55:27;95736.47;;;18.82;69.87
79612;BME280;69094;48.154;11.536;2023-07-13T07:57:53;95731.75;;;18.83;70.60
79612;BME280;69094;48.154;11.536;2023-07-13T08:00:20;95741.41;;;18.69;68.22
79612;BME280;69094;48.154;11.536;2023-07-13T08:02:45;95738.94;;;18.61;68.71
79612;BME280;69094;48.154;11.536;2023-07-13T08:05:11;95731.97;;;18.70;67.67
79612;BME280;69094;48.154;11.536;2023-07-13T08:07:38;95747.56;;;18.59;67.58
79612;BME280;69094;48.154;11.536;2023-07-13T08:10:05;95742.94;;;18.67;67.21
79612;BME280;69094;48.154;11.536;2023-07-13T08:12:37;95752.84;;;18.41;68.30
79612;BME280;69094;48.154;11.536;2023-07-13T08:15:03;95757.84;;;18.36;69.49
79612;BME280;69094;48.154;11.536;2023-07-13T08:17:28;95757.13;;;18.39;68.38
79612;BME280;69094;48.154;11.536;2023-07-13T08:19:54;95753.25;;;18.43;68.55
79612;BME280;69094;48.154;11.536;2023-07-13T08:22:20;95749.50;;;18.28;68.96
79612;BME280;69094;48.154;11.536;2023-07-13T08:27:15;95762.03;;;18.26;68.54
79612;BME280;69094;48.154;11.536;2023-07-13T08:29:40;95765.00;;;18.14;67.82
79612;BME280;69094;48.154;11.536;2023-07-13T08:32:07;95765.00;;;18.14;67.20
79612;BME280;69094;48.154;11.536;2023-07-13T08:34:36;95762.84;;;18.26;67.14
79612;BME280;69094;48.154;11.536;2023-07-13T08:37:02;95768.81;;;18.32;65.08
79612;BME280;69094;48.154;11.536;2023-07-13T08:39:29;95769.25;;;18.34;64.54
79612;BME280;69094;48.154;11.536;2023-07-13T08:42:04;95773.44;;;18.51;63.88
79612;BME280;69094;48.154;11.536;2023-07-13T08:44:42;95771.53;;;18.55;62.27
79612;BME280;69094;48.154;11.536;2023-07-13T08:47:16;95778.31;;;18.61;62.61
79612;BME280;69094;48.154;11.536;2023-07-13T08:49:43;95775.84;;;18.79;60.49
79612;BME280;69094;48.154;11.536;2023-07-13T08:52:38;95784.31;;;18.93;60.14
79612;BME280;69094;48.154;11.536;2023-07-13T08:55:18;95785.88;;;18.94;56.12
79612;BME280;69094;48.154;11.536;2023-07-13T08:57:50;95781.78;;;18.81;55.14
79612;BME280;69094;48.154;11.536;2023-07-13T09:00:18;95786.56;;;18.88;55.97
79612;BME280;69094;48.154;11.536;2023-07-13T09:02:54;95782.44;;;18.75;56.55
79612;BME280;69094;48.154;11.536;2023-07-13T09:05:34;95778.47;;;18.72;56.52
79612;BME280;69094;48.154;11.536;2023-07-13T09:14:06;95782.56;;;18.82;58.31
79612;BME280;69094;48.154;11.536;2023-07-13T09:16:39;95780.72;;;18.93;56.77
79612;BME280;69094;48.154;11.536;2023-07-13T09:19:08;95789.91;;;19.01;56.04
79612;BME280;69094;48.154;11.536;2023-07-13T09:21:40;95786.31;;;18.97;55.84
79612;BME280;69094;48.154;11.536;2023-07-13T09:26:47;95780.66;;;19.16;55.93
79612;BME280;69094;48.154;11.536;2023-07-13T09:29:19;95781.38;;;19.43;54.06
79612;BME280;69094;48.154;11.536;2023-07-13T09:31:50;95779.81;;;19.46;53.25
79612;BME280;69094;48.154;11.536;2023-07-13T09:34:18;95778.94;;;19.38;52.02
79612;BME280;69094;48.154;11.536;2023-07-13T09:36:43;95788.25;;;19.26;52.24
79612;BME280;69094;48.154;11.536;2023-07-13T09:39:29;95789.19;;;19.07;52.67
79612;BME280;69094;48.154;11.536;2023-07-13T09:42:17;95787.88;;;18.98;52.63
79612;BME280;69094;48.154;11.536;2023-07-13T09:44:58;95789.38;;;19.22;52.19
79612;BME280;69094;48.154;11.536;2023-07-13T09:47:30;95779.47;;;19.51;52.55
79612;BME280;69094;48.154;11.536;2023-07-13T09:52:21;95786.59;;;20.34;51.91
79612;BME280;69094;48.154;11.536;2023-07-13T09:54:49;95788.19;;;20.90;49.26
79612;BME280;69094;48.154;11.536;2023-07-13T09:57:22;95789.16;;;21.23;47.88
79612;BME280;69094;48.154;11.536;2023-07-13T09:59:50;95785.81;;;21.80;44.82
79612;BME280;69094;48.154;11.536;2023-07-13T10:04:59;95786.69;;;22.20;44.27
79612;BME280;69094;48.154;11.536;2023-07-13T10:07:25;95780.31;;;22.19;43.76
79612;BME280;69094;48.154;11.536;2023-07-13T10:09:54;95780.66;;;21.82;43.60
79612;BME280;69094;48.154;11.536;2023-07-13T10:12:20;95785.38;;;21.67;44.55
79612;BME280;69094;48.154;11.536;2023-07-13T10:14:48;95792.91;;;21.81;44.91
79612;BME280;69094;48.154;11.536;2023-07-13T10:17:18;95795.28;;;21.75;44.37
79612;BME280;69094;48.154;11.536;2023-07-13T10:19:47;95800.88;;;21.89;45.26
79612;BME280;69094;48.154;11.536;2023-07-13T10:22:22;95802.94;;;22.21;42.77
79612;BME280;69094;48.154;11.536;2023-07-13T10:24:49;95804.50;;;22.29;43.25
79612;BME280;69094;48.154;11.536;2023-07-13T10:27:18;95800.16;;;22.39;43.67
79612;BME280;69094;48.154;11.536;2023-07-13T10:29:53;95803.28;;;22.80;43.08
79612;BME280;69094;48.154;11.536;2023-07-13T10:32:24;95798.94;;;22.72;42.33
79612;BME280;69094;48.154;11.536;2023-07-13T10:34:50;95796.09;;;23.19;40.81
79612;BME280;69094;48.154;11.536;2023-07-13T10:37:30;95798.75;;;24.25;41.01
79612;BME280;69094;48.154;11.536;2023-07-13T10:39:58;95792.72;;;23.67;42.74
79612;BME280;69094;48.154;11.536;2023-07-13T10:42:30;95799.88;;;23.64;41.69
79612;BME280;69094;48.154;11.536;2023-07-13T10:44:57;95793.63;;;23.46;42.74
79612;BME280;69094;48.154;11.536;2023-07-13T10:47:24;95801.66;;;23.12;42.53
79612;BME280;69094;48.154;11.536;2023-07-13T10:49:53;95804.41;;;23.19;42.13
79612;BME280;69094;48.154;11.536;2023-07-13T10:52:46;95797.16;;;23.54;41.52
79612;BME280;69094;48.154;11.536;2023-07-13T10:55:35;95797.25;;;23.29;42.50
79612;BME280;69094;48.154;11.536;2023-07-13T10:58:14;95801.59;;;23.30;42.79
79612;BME280;69094;48.154;11.536;2023-07-13T11:00:48;95801.59;;;23.30;41.73
79612;BME280;69094;48.154;11.536;2023-07-13T11:03:17;95795.47;;;23.78;41.15
79612;BME280;69094;48.154;11.536;2023-07-13T11:05:43;95811.34;;;24.40;40.54
79612;BME280;69094;48.154;11.536;2023-07-13T11:13:36;95808.03;;;24.60;39.40
79612;BME280;69094;48.154;11.536;2023-07-13T11:16:57;95811.44;;;24.26;40.13
79612;BME280;69094;48.154;11.536;2023-07-13T11:21:31;95816.50;;;24.45;38.41
79612;BME280;69094;48.154;11.536;2023-07-13T11:24:17;95799.09;;;24.79;36.00
79612;BME280;69094;48.154;11.536;2023-07-13T11:31:42;95806.16;;;26.99;31.12
79612;BME280;69094;48.154;11.536;2023-07-13T11:34:14;95805.19;;;27.05;31.62
79612;BME280;69094;48.154;11.536;2023-07-13T11:36:44;95798.47;;;27.26;29.46
79612;BME280;69094;48.154;11.536;2023-07-13T11:39:31;95794.44;;;27.87;30.45
79612;BME280;69094;48.154;11.536;2023-07-13T11:42:00;95791.94;;;27.73;30.28
79612;BME280;69094;48.154;11.536;2023-07-13T11:44:27;95784.53;;;28.03;28.84
79612;BME280;69094;48.154;11.536;2023-07-13T11:46:59;95784.53;;;28.03;29.94
79612;BME280;69094;48.154;11.536;2023-07-13T11:49:28;95776.88;;;27.87;28.77
79612;BME280;69094;48.154;11.536;2023-07-13T11:51:56;95777.72;;;27.04;31.58
79612;BME280;69094;48.154;11.536;2023-07-13T11:54:27;95777.63;;;27.51;30.73
79612;BME280;69094;48.154;11.536;2023-07-13T11:56:58;95772.97;;;27.44;31.00
79612;BME280;69094;48.154;11.536;2023-07-13T11:59:26;95772.41;;;27.33;30.10
79612;BME280;69094;48.154;11.536;2023-07-13T12:01:54;95762.22;;;27.43;30.26
79612;BME280;69094;48.154;11.536;2023-07-13T12:04:26;95766.94;;;28.55;30.19
79612;BME280;69094;48.154;11.536;2023-07-13T12:06:55;95771.97;;;29.09;29.89
79612;BME280;69094;48.154;11.536;2023-07-13T12:09:21;95767.41;;;28.17;29.30
79612;BME280;69094;48.154;11.536;2023-07-13T12:11:50;95765.91;;;26.73;30.14
79612;BME280;69094;48.154;11.536;2023-07-13T12:14:17;95755.44;;;25.75;34.29
79612;BME280;69094;48.154;11.536;2023-07-13T12:16:43;95768.56;;;25.10;36.27
79612;BME280;69094;48.154;11.536;2023-07-13T12:19:28;95756.44;;;24.52;37.84
79612;BME280;69094;48.154;11.536;2023-07-13T12:21:57;95757.25;;;24.52;37.71
79612;BME280;69094;48.154;11.536;2023-07-13T12:24:23;95755.97;;;24.98;37.46
79612;BME280;69094;48.154;11.536;2023-07-13T12:27:01;95754.34;;;25.01;36.60
79612;BME280;69094;48.154;11.536;2023-07-13T12:29:28;95740.78;;;25.41;35.81
79612;BME280;69094;48.154;11.536;2023-07-13T12:31:53;95750.75;;;25.38;36.21
79612;BME280;69094;48.154;11.536;2023-07-13T12:34:23;95750.59;;;25.49;35.52
79612;BME280;69094;48.154;11.536;2023-07-13T12:36:53;95746.72;;;25.43;35.64
79612;BME280;69094;48.154;11.536;2023-07-13T12:39:22;95748.03;;;25.65;35.34
79612;BME280;69094;48.154;11.536;2023-07-13T12:41:50;95748.91;;;25.28;37.11
79612;BME280;69094;48.154;11.536;2023-07-13T12:44:18;95751.00;;;25.51;36.00
79612;BME280;69094;48.154;11.536;2023-07-13T12:46:58;95746.00;;;25.66;35.45
79612;BME280;69094;48.154;11.536;2023-07-13T12:49:28;95732.66;;;25.81;35.43
79612;BME280;69094;48.154;11.536;2023-07-13T12:52:02;95733.06;;;26.10;34.61
79612;BME280;69094;48.154;11.536;2023-07-13T12:54:29;95737.69;;;25.93;34.54
79612;BME280;69094;48.154;11.536;2023-07-13T12:56:55;95728.25;;;25.83;34.00
79612;BME280;69094;48.154;11.536;2023-07-13T12:59:25;95736.66;;;25.79;34.42
79612;BME280;69094;48.154;11.536;2023-07-13T13:01:54;95729.88;;;25.81;33.84
79612;BME280;69094;48.154;11.536;2023-07-13T13:04:20;95725.22;;;25.09;34.90
79612;BME280;69094;48.154;11.536;2023-07-13T13:06:47;95719.41;;;24.96;35.66
79612;BME280;69094;48.154;11.536;2023-07-13T13:09:14;95731.47;;;25.82;34.24
79612;BME280;69094;48.154;11.536;2023-07-13T13:11:40;95725.31;;;26.45;33.13
79612;BME280;69094;48.154;11.536;2023-07-13T13:14:06;95724.16;;;27.09;31.89
79612;BME280;69094;48.154;11.536;2023-07-13T13:16:47;95725.34;;;25.94;32.46
79612;BME280;69094;48.154;11.536;2023-07-13T13:19:23;95727.66;;;25.07;33.88
79612;BME280;69094;48.154;11.536;2023-07-13T13:21:48;95728.72;;;25.20;33.41
79612;BME280;69094;48.154;11.536;2023-07-13T13:24:23;95718.28;;;26.36;32.00
79612;BME280;69094;48.154;11.536;2023-07-13T13:26:49;95723.44;;;26.38;30.87
79612;BME280;69094;48.154;11.536;2023-07-13T13:29:20;95724.25;;;25.57;32.90